Terminal Aerodrome Forecast
Issued by NWS

Home | Current Version | Previous Version | Text Only | Print | Product List | Glossary On
Versions: 1 2 3 4 5 6 7 8 9 10 11 12 13 14 15 16 17 18
000
FTUS43 KGRB 061100
TAFCWA
TAF
KCWA 061126Z 0612/0712 18008KT P6SM BKN080
     FM061400 23011G19KT P6SM SCT050 BKN080
     FM061800 25010G18KT P6SM SCT070 SCT100
     FM070200 24006KT P6SM SCT070 BKN100
     FM070600 21008KT P6SM SCT050 BKN080=

USA.gov is the U.S. government's official web portal to all federal, state and local government web resources and services.